Time;durP1;ratioP1;P1;durP2;ratioP2;P2;SDS_P1;SDS_P2;PMS_P1;PMS_P2;Temp;Humidity;BMP_temperature;BMP_pressure;BME280_temperature;BME280_humidity;BME280_pressure;Samples;Min_cycle;Max_cycle;Signal;HPM_P1;HPM_P2
2022/04/24 00:04:43;;;;;;;51.13;30.77;;;5.60;99.90;;;;;;10496844;28;20076;-82
2022/04/24 00:09:44;;;;;;;50.90;29.70;;;5.50;99.90;;;;;;10497605;28;20091;-82
2022/04/24 00:14:46;;;;;;;54.57;29.80;;;5.40;99.90;;;;;;10496925;28;20032;-82
2022/04/24 00:19:48;;;;;;;63.90;34.33;;;5.30;99.90;;;;;;10495723;28;20105;-81
2022/04/24 00:24:49;;;;;;;61.33;34.00;;;5.40;99.90;;;;;;10496518;28;20049;-82
2022/04/24 00:29:49;;;;;;;61.43;33.93;;;5.40;99.90;;;;;;10496172;28;20052;-82
2022/04/24 00:34:50;;;;;;;63.27;35.87;;;5.40;99.90;;;;;;10495428;28;20028;-82
2022/04/24 00:39:50;;;;;;;64.97;37.07;;;5.30;99.90;;;;;;10489497;28;20029;-81
2022/04/24 00:44:51;;;;;;;77.07;40.40;;;5.20;99.90;;;;;;10495303;28;20037;-82
2022/04/24 00:49:52;;;;;;;86.93;43.63;;;5.00;99.90;;;;;;10495305;28;20033;-81
2022/04/24 00:54:52;;;;;;;77.77;42.57;;;5.00;99.90;;;;;;10495326;28;20428;-81
2022/04/24 00:59:53;;;;;;;75.83;39.53;;;5.10;99.90;;;;;;10494035;28;20033;-82
2022/04/24 01:04:54;;;;;;;68.87;37.33;;;5.30;99.90;;;;;;10494520;28;20383;-82
2022/04/24 01:09:57;;;;;;;63.90;34.47;;;5.40;99.90;;;;;;10495024;28;20021;-81
2022/04/24 01:14:58;;;;;;;60.57;32.40;;;5.50;99.90;;;;;;10494435;28;20021;-82
2022/04/24 01:19:59;;;;;;;60.30;32.93;;;5.60;99.90;;;;;;10494951;28;20024;-82
2022/04/24 01:25:00;;;;;;;58.67;31.70;;;5.70;99.90;;;;;;10494843;28;20040;-81
2022/04/24 01:30:01;;;;;;;65.80;37.00;;;5.60;99.90;;;;;;10494123;28;20052;-82
2022/04/24 01:35:02;;;;;;;63.20;34.03;;;5.50;99.90;;;;;;10493809;28;20093;-82
2022/04/24 01:40:03;;;;;;;66.67;33.80;;;5.40;99.90;;;;;;10493446;28;20103;-82
2022/04/24 01:45:05;;;;;;;60.70;35.70;;;5.40;99.90;;;;;;10493329;28;20127;-82
2022/04/24 01:50:06;;;;;;;75.80;41.97;;;5.40;99.90;;;;;;10493988;28;20555;-82
2022/04/24 01:55:06;;;;;;;64.30;35.93;;;5.40;99.90;;;;;;10493272;28;20024;-82
2022/04/24 02:00:07;;;;;;;67.07;35.43;;;5.50;99.90;;;;;;10492620;28;20044;-83
2022/04/24 02:05:08;;;;;;;67.37;35.43;;;5.70;99.90;;;;;;10491734;28;20041;-82
2022/04/24 02:10:09;;;;;;;69.00;36.80;;;5.90;99.90;;;;;;10492089;28;20040;-81
2022/04/24 02:15:10;;;;;;;65.40;36.07;;;5.90;99.90;;;;;;10491889;28;20037;-81
2022/04/24 02:20:10;;;;;;;59.93;32.83;;;5.90;99.90;;;;;;10491879;28;20028;-82
2022/04/24 02:25:11;;;;;;;62.97;34.67;;;5.90;99.90;;;;;;10491756;28;20036;-81
2022/04/24 02:30:12;;;;;;;56.37;31.60;;;6.00;99.90;;;;;;10491100;28;20091;-82
2022/04/24 02:35:12;;;;;;;58.73;32.07;;;6.00;99.90;;;;;;10491830;28;20099;-82
2022/04/24 02:40:15;;;;;;;66.60;35.00;;;6.00;99.90;;;;;;10491949;28;20439;-82
2022/04/24 02:45:16;;;;;;;61.53;33.37;;;5.90;99.90;;;;;;10489740;28;20071;-81
2022/04/24 02:50:17;;;;;;;56.27;31.13;;;6.00;99.90;;;;;;10491175;28;20075;-82
2022/04/24 02:55:19;;;;;;;59.70;33.07;;;6.10;99.90;;;;;;10490570;28;20056;-81
2022/04/24 03:00:24;;;;;;;55.53;29.40;;;6.10;99.90;;;;;;10491237;28;20020;-82
2022/04/24 03:05:25;;;;;;;49.83;23.67;;;6.20;99.90;;;;;;10489191;28;20033;-82
2022/04/24 03:10:26;;;;;;;52.90;29.53;;;6.20;99.90;;;;;;10490325;28;20022;-81
2022/04/24 03:15:26;;;;;;;52.63;29.80;;;6.10;99.90;;;;;;10489989;28;20097;-82
2022/04/24 03:20:28;;;;;;;49.90;27.40;;;6.10;99.90;;;;;;10490748;28;20036;-82
2022/04/24 03:25:28;;;;;;;54.20;28.40;;;6.10;99.90;;;;;;10498373;28;20395;-82
2022/04/24 03:30:29;;;;;;;52.60;29.20;;;6.20;99.90;;;;;;10498318;28;20055;-82
2022/04/24 03:35:29;;;;;;;53.83;27.50;;;6.20;99.90;;;;;;10499074;28;20024;-82
2022/04/24 03:40:30;;;;;;;44.80;25.70;;;6.20;99.90;;;;;;10499174;28;20055;-82
2022/04/24 03:45:31;;;;;;;49.13;27.73;;;6.20;99.90;;;;;;10497322;28;20052;-82
2022/04/24 03:50:32;;;;;;;55.40;31.20;;;6.30;99.90;;;;;;10497583;28;20094;-82
2022/04/24 03:55:33;;;;;;;51.80;29.23;;;6.30;99.90;;;;;;10513300;22;20412;-82
2022/04/24 04:00:33;;;;;;;50.13;29.03;;;6.30;99.90;;;;;;10497325;28;20029;-81
2022/04/24 04:05:37;;;;;;;48.27;26.73;;;6.30;99.90;;;;;;10497594;28;20040;-82
2022/04/24 04:10:38;;;;;;;43.80;25.20;;;6.40;99.90;;;;;;10497396;28;20490;-82
2022/04/24 04:15:39;;;;;;;41.77;24.20;;;6.60;99.90;;;;;;10497509;28;20024;-81
2022/04/24 04:20:39;;;;;;;38.13;23.73;;;6.70;99.90;;;;;;10508586;28;20539;-82
2022/04/24 04:25:40;;;;;;;52.90;31.03;;;6.90;99.90;;;;;;10487018;28;20423;-81
2022/04/24 04:30:41;;;;;;;67.87;35.80;;;7.00;99.90;;;;;;10485600;28;20037;-82
2022/04/24 04:35:42;;;;;;;73.03;38.07;;;7.10;99.90;;;;;;10496008;28;20032;-81
2022/04/24 04:40:42;;;;;;;84.50;43.70;;;7.20;99.90;;;;;;10495314;28;20090;-82
2022/04/24 04:45:43;;;;;;;108.40;48.57;;;7.20;99.90;;;;;;10495283;28;20089;-82
2022/04/24 04:50:44;;;;;;;124.77;54.53;;;7.20;99.90;;;;;;10495030;28;20040;-82
2022/04/24 04:55:45;;;;;;;82.87;41.80;;;7.30;99.90;;;;;;10495426;28;20060;-82
2022/04/24 05:00:45;;;;;;;68.33;34.73;;;7.40;99.90;;;;;;10477173;28;20024;-82
2022/04/24 05:05:46;;;;;;;51.80;29.17;;;7.40;99.90;;;;;;10495476;28;20020;-81
2022/04/24 05:10:46;;;;;;;45.93;26.47;;;7.60;99.90;;;;;;10495242;28;20036;-81
2022/04/24 05:15:47;;;;;;;34.33;20.10;;;7.80;99.90;;;;;;10493483;28;20029;-82
2022/04/24 05:20:48;;;;;;;31.60;19.07;;;8.00;99.90;;;;;;10494182;28;20032;-82
2022/04/24 05:25:48;;;;;;;34.03;20.27;;;8.20;99.90;;;;;;10479599;28;20032;-82
2022/04/24 05:30:49;;;;;;;44.07;24.23;;;8.40;99.90;;;;;;10482380;28;20028;-81
2022/04/24 05:35:50;;;;;;;69.83;36.30;;;8.50;99.90;;;;;;10493593;28;20067;-83
2022/04/24 05:40:50;;;;;;;64.27;31.50;;;8.60;99.90;;;;;;10490460;28;20037;-81
2022/04/24 05:45:51;;;;;;;36.20;22.23;;;8.80;99.90;;;;;;10493077;28;20033;-82
2022/04/24 05:50:52;;;;;;;41.27;24.63;;;8.90;99.90;;;;;;10476047;22;20056;-82
2022/04/24 05:55:52;;;;;;;37.27;21.60;;;9.00;99.90;;;;;;10452149;28;20053;-82
2022/04/24 06:00:53;;;;;;;34.53;21.13;;;8.90;99.90;;;;;;10455397;28;20021;-81
2022/04/24 06:05:54;;;;;;;40.83;24.77;;;8.80;99.90;;;;;;10451775;28;20067;-82
2022/04/24 06:10:54;;;;;;;43.67;26.87;;;8.90;99.90;;;;;;10452159;28;20541;-82
2022/04/24 06:15:57;;;;;;;44.40;26.63;;;8.80;99.90;;;;;;10451509;28;20029;-84
2022/04/24 06:20:58;;;;;;;45.87;26.53;;;8.90;99.90;;;;;;10452243;28;20063;-82
2022/04/24 06:25:59;;;;;;;42.30;25.30;;;9.00;99.90;;;;;;10469085;28;20025;-82
2022/04/24 06:31:00;;;;;;;41.50;25.93;;;9.10;99.90;;;;;;10459445;28;20021;-82
2022/04/24 06:36:02;;;;;;;46.33;26.30;;;9.20;99.90;;;;;;10450848;28;20108;-82
2022/04/24 06:41:02;;;;;;;47.90;30.83;;;9.40;99.90;;;;;;10449705;28;20037;-82
2022/04/24 06:46:03;;;;;;;67.87;44.17;;;9.50;99.90;;;;;;10450253;28;20037;-82
2022/04/24 06:51:04;;;;;;;93.77;51.33;;;9.70;99.90;;;;;;10449456;28;20180;-82
2022/04/24 06:56:05;;;;;;;136.30;57.10;;;9.80;99.90;;;;;;10441994;28;20025;-82
2022/04/24 07:01:06;;;;;;;160.60;65.83;;;9.90;99.90;;;;;;10439045;28;20492;-82
2022/04/24 07:06:07;;;;;;;98.07;53.73;;;9.90;99.90;;;;;;10448666;28;20029;-81
2022/04/24 07:11:08;;;;;;;146.73;95.23;;;9.90;99.90;;;;;;10433774;28;20029;-81
2022/04/24 07:16:08;;;;;;;61.73;39.60;;;9.80;99.90;;;;;;10442940;28;20123;-82
2022/04/24 07:21:09;;;;;;;47.80;30.10;;;9.80;99.90;;;;;;10447141;28;20082;-82
2022/04/24 07:26:09;;;;;;;43.13;27.73;;;9.60;99.90;;;;;;10436666;28;20017;-82
2022/04/24 07:31:13;;;;;;;53.40;33.40;;;9.40;99.90;;;;;;10448468;28;20033;-84
2022/04/24 07:36:14;;;;;;;94.87;57.57;;;9.40;99.90;;;;;;10442579;28;20021;-82
2022/04/24 07:41:14;;;;;;;45.17;27.20;;;9.30;99.90;;;;;;10423518;28;20041;-82
2022/04/24 07:46:15;;;;;;;37.10;23.50;;;9.30;99.90;;;;;;10435876;28;20028;-82
2022/04/24 07:51:16;;;;;;;43.63;28.60;;;9.20;99.90;;;;;;10447559;28;20064;-83
2022/04/24 07:56:17;;;;;;;64.87;39.63;;;9.10;99.90;;;;;;10439421;28;20032;-82
2022/04/24 08:01:17;;;;;;;48.13;30.63;;;9.10;99.90;;;;;;10437340;28;20333;-82
2022/04/24 08:06:18;;;;;;;31.00;19.53;;;9.20;99.90;;;;;;10373375;28;20072;-83
2022/04/24 08:11:18;;;;;;;27.50;18.07;;;9.30;99.90;;;;;;10393016;28;20052;-83
2022/04/24 08:16:23;;;;;;;27.90;17.60;;;9.40;99.90;;;;;;10436281;28;20025;-82
2022/04/24 08:21:24;;;;;;;24.17;16.37;;;9.60;99.90;;;;;;10447608;28;20029;-82
2022/04/24 08:26:26;;;;;;;24.13;16.37;;;9.90;99.90;;;;;;10450774;28;20047;-83
2022/04/24 08:31:26;;;;;;;23.85;15.70;;;10.00;99.90;;;;;;10452693;28;20075;-82
2022/04/24 08:36:27;;;;;;;25.40;16.23;;;10.20;99.90;;;;;;10454320;28;20033;-82
2022/04/24 08:41:31;;;;;;;25.70;15.82;;;10.50;99.90;;;;;;10453529;28;20389;-82
2022/04/24 08:46:32;;;;;;;20.65;13.18;;;10.70;99.90;;;;;;10444658;28;20040;-81
2022/04/24 08:51:33;;;;;;;18.88;13.18;;;10.80;99.90;;;;;;10453208;28;20037;-83
2022/04/24 08:56:34;;;;;;;19.42;12.38;;;10.70;99.90;;;;;;10453293;28;20123;-81
2022/04/24 09:01:44;;;;;;;15.55;11.07;;;10.70;99.90;;;;;;10433596;28;20598;-82
2022/04/24 09:06:58;;;;;;;17.48;12.13;;;10.60;99.90;;;;;;10453196;28;20060;-82
2022/04/24 09:12:13;;;;;;;16.35;11.05;;;10.50;99.90;;;;;;10450920;28;20488;-82
2022/04/24 09:17:19;;;;;;;19.03;13.13;;;10.40;99.90;;;;;;10446500;28;20068;-82
2022/04/24 09:22:22;;;;;;;20.23;11.98;;;10.30;99.90;;;;;;10447629;28;20384;-82
2022/04/24 09:27:32;;;;;;;19.93;13.37;;;10.20;99.90;;;;;;10434458;28;20029;-83
2022/04/24 09:32:46;;;;;;;18.90;12.80;;;10.20;99.90;;;;;;10439313;28;20048;-84
2022/04/24 09:37:47;;;;;;;18.77;12.10;;;10.10;99.90;;;;;;10448407;28;20124;-82
2022/04/24 09:42:59;;;;;;;22.63;14.07;;;10.10;99.90;;;;;;10427490;28;20120;-84
2022/04/24 09:47:59;;;;;;;20.20;12.57;;;10.00;99.90;;;;;;10441024;28;20045;-82
2022/04/24 09:53:02;;;;;;;20.53;13.33;;;10.00;99.90;;;;;;10452005;28;20396;-82
2022/04/24 09:58:03;;;;;;;20.93;13.77;;;9.90;99.90;;;;;;10452794;28;20039;-82
2022/04/24 10:03:04;;;;;;;23.83;14.23;;;10.00;99.90;;;;;;10443312;28;20409;-82
2022/04/24 10:08:06;;;;;;;22.13;14.23;;;10.10;99.90;;;;;;10440478;28;20041;-82
2022/04/24 10:13:10;;;;;;;18.63;13.07;;;10.10;99.90;;;;;;10449070;28;20029;-81
2022/04/24 10:18:33;;;;;;;20.13;13.53;;;10.20;99.90;;;;;;10450106;28;20040;-82
2022/04/24 10:23:37;;;;;;;20.83;13.90;;;10.30;99.90;;;;;;10450562;28;20068;-82
2022/04/24 10:28:40;;;;;;;21.55;14.45;;;10.30;99.90;;;;;;10450841;28;20039;-82
2022/04/24 10:33:52;;;;;;;21.35;13.02;;;10.40;99.90;;;;;;10432637;28;20075;-82
2022/04/24 10:38:57;;;;;;;20.30;13.57;;;10.40;99.90;;;;;;10451139;28;20036;-82
2022/04/24 10:44:10;;;;;;;19.90;13.90;;;10.40;99.90;;;;;;10450164;28;20393;-83
2022/04/24 10:49:11;;;;;;;23.10;14.70;;;10.40;99.90;;;;;;10432085;28;20045;-82
2022/04/24 10:54:14;;;;;;;38.58;22.50;;;10.40;99.90;;;;;;10449897;28;20036;-83
2022/04/24 10:59:17;;;;;;;25.60;16.50;;;10.40;99.90;;;;;;10449679;28;20068;-83
2022/04/24 11:04:19;;;;;;;25.67;15.90;;;10.50;99.90;;;;;;10438862;28;20048;-83
2022/04/24 11:09:21;;;;;;;25.85;17.45;;;10.70;99.90;;;;;;10449346;28;20041;-83
2022/04/24 11:14:23;;;;;;;31.15;18.85;;;10.90;99.90;;;;;;10448474;28;20147;-82
2022/04/24 11:19:25;;;;;;;26.02;17.80;;;11.20;99.90;;;;;;10448295;28;20028;-82
2022/04/24 11:24:28;;;;;;;25.95;17.08;;;11.30;99.90;;;;;;10433208;28;20041;-82
2022/04/24 11:29:29;;;;;;;30.48;19.38;;;11.70;99.90;;;;;;10431734;28;20087;-82
2022/04/24 11:34:31;;;;;;;29.67;18.00;;;12.10;99.90;;;;;;10439285;28;20405;-83
2022/04/24 11:39:32;;;;;;;22.75;16.10;;;12.40;99.90;;;;;;10439673;28;20038;-82
2022/04/24 11:50:14;;;;;;;30.25;18.42;;;13.30;99.90;;;;;;10451234;28;20745;-83
2022/04/24 11:55:21;;;;;;;26.55;18.52;;;13.40;99.90;;;;;;10448867;28;20033;-83
2022/04/24 12:00:33;;;;;;;26.63;17.92;;;13.30;99.90;;;;;;10446108;28;20106;-83
2022/04/24 12:05:34;;;;;;;23.60;16.45;;;13.30;99.90;;;;;;10441669;28;20040;-82
2022/04/24 12:10:35;;;;;;;26.35;17.88;;;13.20;99.90;;;;;;10442953;28;20032;-82
2022/04/24 12:15:36;;;;;;;23.10;15.60;;;13.30;99.90;;;;;;10433462;28;20090;-82
2022/04/24 12:20:41;;;;;;;22.15;15.77;;;13.60;99.90;;;;;;10444893;28;20106;-83
2022/04/24 12:25:53;;;;;;;21.30;15.57;;;14.00;99.90;;;;;;10445778;28;20049;-83
2022/04/24 12:30:53;;;;;;;21.58;14.77;;;14.80;99.90;;;;;;10443358;28;20457;-82
2022/04/24 12:35:55;;;;;;;22.85;15.60;;;15.10;99.90;;;;;;10446009;28;20115;-83
2022/04/24 12:41:01;;;;;;;23.85;15.07;;;14.90;99.90;;;;;;10429046;28;20503;-84
2022/04/24 12:46:05;;;;;;;20.52;14.40;;;14.80;99.90;;;;;;10432814;28;20037;-86
2022/04/24 12:51:06;;;;;;;22.05;14.95;;;14.70;99.90;;;;;;10446613;28;20468;-82
2022/04/24 12:56:07;;;;;;;19.67;14.55;;;14.40;99.90;;;;;;10433404;28;20020;-83
2022/04/24 13:01:08;;;;;;;20.15;13.90;;;14.20;99.90;;;;;;10447042;28;20033;-82
2022/04/24 13:06:09;;;;;;;22.95;15.82;;;14.10;99.90;;;;;;10437906;28;20028;-82
2022/04/24 13:11:10;;;;;;;22.30;14.90;;;14.00;99.90;;;;;;10453280;28;20036;-83
2022/04/24 13:21:30;;;;;;;19.50;13.38;;;13.80;99.90;;;;;;10445896;28;20072;-82
2022/04/24 13:26:32;;;;;;;18.88;12.73;;;13.60;99.90;;;;;;10439672;28;20104;-82
2022/04/24 13:31:33;;;;;;;18.52;13.60;;;13.50;99.90;;;;;;10450062;28;20033;-83
2022/04/24 13:36:33;;;;;;;19.63;13.38;;;13.40;99.90;;;;;;10451788;28;20033;-81
2022/04/24 13:41:35;;;;;;;20.67;14.30;;;13.40;99.90;;;;;;10450504;28;20440;-81
2022/04/24 13:46:36;;;;;;;20.38;14.55;;;13.40;99.90;;;;;;10443000;28;20036;-86
2022/04/24 13:51:37;;;;;;;19.08;12.80;;;13.60;99.90;;;;;;10450343;28;20037;-82
2022/04/24 13:56:38;;;;;;;19.52;14.15;;;13.80;99.90;;;;;;10450220;28;20040;-84
2022/04/24 14:01:39;;;;;;;18.20;12.55;;;13.90;99.90;;;;;;10449674;28;20115;-84
2022/04/24 14:06:40;;;;;;;20.73;13.75;;;13.80;99.90;;;;;;10447266;28;20532;-82
2022/04/24 14:11:43;;;;;;;32.00;23.30;;;13.70;99.90;;;;;;10448500;28;20029;-82
2022/04/24 14:16:43;;;;;;;31.45;20.65;;;13.60;99.90;;;;;;10450074;28;20029;-83
2022/04/24 14:21:44;;;;;;;186.88;124.25;;;13.50;99.90;;;;;;10442566;28;20093;-82
2022/04/24 14:26:45;;;;;;;91.35;60.20;;;13.40;99.90;;;;;;10440184;28;20029;-81
2022/04/24 14:31:48;;;;;;;139.75;92.75;;;13.30;99.90;;;;;;10420384;28;20021;-84
2022/04/24 14:36:49;;;;;;;308.25;220.98;;;13.30;99.90;;;;;;10440688;28;20041;-83
2022/04/24 14:41:52;;;;;;;229.50;137.98;;;13.30;99.90;;;;;;10447447;28;20044;-83
2022/04/24 14:57:32;;;;;;;157.10;103.03;;;13.40;99.90;;;;;;10443713;28;20045;-81
2022/04/24 15:02:32;;;;;;;30.90;23.30;;;13.60;99.90;;;;;;10447779;28;20041;-82
2022/04/24 15:07:33;;;;;;;22.48;18.70;;;13.90;99.90;;;;;;10448246;28;20431;-83
2022/04/24 15:12:34;;;;;;;16.65;13.45;;;14.50;99.90;;;;;;10438641;28;20515;-81
2022/04/24 15:17:35;;;;;;;19.10;14.18;;;14.50;99.90;;;;;;10443275;28;20419;-81
2022/04/24 15:22:36;;;;;;;13.13;10.10;;;14.30;99.90;;;;;;10429161;28;20049;-81
2022/04/24 15:27:37;;;;;;;12.82;9.55;;;14.20;99.90;;;;;;10446875;28;20029;-83
2022/04/24 15:32:40;;;;;;;12.48;9.30;;;14.20;99.90;;;;;;10446966;28;20032;-82
2022/04/24 15:37:44;;;;;;;11.98;7.50;;;14.30;99.90;;;;;;10446213;28;20167;-81
2022/04/24 15:42:44;;;;;;;10.73;7.90;;;14.30;99.90;;;;;;10440165;28;20040;-84
2022/04/24 15:47:48;;;;;;;8.85;6.70;;;14.30;99.90;;;;;;10445317;28;20056;-83
2022/04/24 15:52:49;;;;;;;115.05;53.72;;;14.20;99.90;;;;;;10446706;28;20627;-82
2022/04/24 15:57:55;;;;;;;81.72;37.92;;;14.00;99.90;;;;;;10442325;28;20163;-84
2022/04/24 16:02:59;;;;;;;66.22;32.35;;;13.80;99.90;;;;;;10433526;28;20041;-83
2022/04/24 16:08:00;;;;;;;41.42;23.23;;;13.40;99.90;;;;;;10428956;28;20121;-80
2022/04/24 16:13:02;;;;;;;30.67;16.73;;;13.10;99.90;;;;;;10427832;28;20587;-82
2022/04/24 16:18:03;;;;;;;27.08;15.93;;;13.00;99.90;;;;;;10447335;28;20021;-82
2022/04/24 16:23:04;;;;;;;87.63;45.85;;;13.00;99.90;;;;;;10436178;28;20507;-82
2022/04/24 16:28:05;;;;;;;99.80;53.88;;;13.10;99.90;;;;;;10422602;28;20026;-81
2022/04/24 16:33:05;;;;;;;137.88;68.18;;;13.00;99.90;;;;;;10440542;28;20491;-83
2022/04/24 16:38:06;;;;;;;53.17;29.35;;;12.90;99.90;;;;;;10419414;28;20021;-83
2022/04/24 16:43:06;;;;;;;29.88;18.98;;;12.70;99.90;;;;;;10447152;28;20048;-85
2022/04/24 16:48:07;;;;;;;28.67;17.15;;;12.60;99.90;;;;;;10448172;28;20655;-83
2022/04/24 17:03:48;;;;;;;28.80;13.60;;;12.20;99.90;;;;;;10432895;28;20136;-83
2022/04/24 17:08:48;;;;;;;42.03;24.65;;;12.10;99.90;;;;;;10437056;28;20064;-84
2022/04/24 17:13:52;;;;;;;60.63;30.67;;;12.00;99.90;;;;;;10451804;22;20060;-85
2022/04/24 17:49:56;;;;;;;28.95;13.88;;;9.40;99.90;;;;;;10574363;27;20367;-86
2022/04/24 17:54:57;;;;;;;18.60;9.70;;;10.00;99.90;;;;;;10528359;28;20032;-84
2022/04/24 17:59:58;;;;;;;42.30;18.63;;;9.90;99.90;;;;;;10522744;28;20028;-84
2022/04/24 18:04:59;;;;;;;32.08;16.10;;;9.90;99.90;;;;;;10523560;28;20024;-86
2022/04/24 18:10:00;;;;;;;82.20;33.10;;;9.80;99.90;;;;;;10523614;28;20036;-84
2022/04/24 18:15:02;;;;;;;58.90;27.43;;;9.70;99.90;;;;;;10527991;28;20036;-83
2022/04/24 18:20:03;;;;;;;103.03;50.63;;;9.60;99.90;;;;;;10524286;28;20385;-86
2022/04/24 18:25:06;;;;;;;132.07;68.93;;;9.50;99.90;;;;;;10531484;28;20667;-83
2022/04/24 18:30:08;;;;;;;117.97;65.43;;;9.40;99.90;;;;;;10522160;28;20051;-82
2022/04/24 18:35:08;;;;;;;101.33;60.50;;;9.30;99.90;;;;;;10525903;28;20040;-84
2022/04/24 18:40:12;;;;;;;115.83;90.37;;;9.40;99.90;;;;;;10525308;28;20026;-85
2022/04/24 18:45:14;;;;;;;56.53;30.63;;;9.40;99.90;;;;;;10521094;28;20079;-83
2022/04/24 18:50:15;;;;;;;56.93;31.37;;;9.40;99.90;;;;;;10508068;28;20515;-84
2022/04/24 18:55:16;;;;;;;62.40;31.93;;;9.40;99.90;;;;;;10503518;28;20403;-84
2022/04/24 19:00:18;;;;;;;76.73;38.53;;;9.40;99.90;;;;;;10497133;28;20032;-85
2022/04/24 19:15:59;;;;;;;119.97;56.37;;;9.30;99.90;;;;;;10500516;28;20052;-84
2022/04/24 19:21:00;;;;;;;127.57;61.40;;;9.30;99.90;;;;;;10498413;28;20028;-84
2022/04/24 19:26:02;;;;;;;117.43;56.80;;;9.30;99.90;;;;;;10497085;28;20040;-82
2022/04/24 19:31:04;;;;;;;106.93;53.53;;;9.10;99.90;;;;;;10495135;28;20102;-82
2022/04/24 19:36:06;;;;;;;73.10;38.30;;;9.10;99.90;;;;;;10491863;28;20045;-85
2022/04/24 19:41:06;;;;;;;120.93;47.63;;;9.00;99.90;;;;;;10504228;28;20409;-82
2022/04/24 19:46:07;;;;;;;109.97;46.00;;;8.90;99.90;;;;;;10502233;28;20730;-86
2022/04/24 19:51:08;;;;;;;101.23;43.07;;;8.90;99.90;;;;;;10491318;28;20036;-83
2022/04/24 19:56:09;;;;;;;128.07;46.53;;;8.70;99.90;;;;;;10496376;28;20123;-84
2022/04/24 20:01:11;;;;;;;91.83;40.43;;;8.70;99.90;;;;;;10488900;28;20522;-84
2022/04/24 20:06:12;;;;;;;145.83;51.93;;;8.60;99.90;;;;;;10503089;28;20038;-86
2022/04/24 20:11:12;;;;;;;128.23;54.60;;;8.40;99.90;;;;;;10510737;28;20035;-83
2022/04/24 20:16:26;;;;;;;215.73;70.10;;;8.40;99.90;;;;;;10479612;28;20036;-83
2022/04/24 20:21:28;;;;;;;142.50;63.53;;;8.30;99.90;;;;;;10473530;28;20064;-84
2022/04/24 20:26:29;;;;;;;121.77;55.70;;;8.30;99.90;;;;;;10477775;28;20025;-86
2022/04/24 20:31:30;;;;;;;136.80;50.60;;;8.30;99.90;;;;;;10465722;22;20571;-85
2022/04/24 20:36:30;;;;;;;426.50;70.93;;;8.10;99.90;;;;;;10414063;28;20116;-85
2022/04/24 20:41:31;;;;;;;678.37;111.97;;;7.90;99.90;;;;;;10409711;28;20041;-87
2022/04/24 20:46:32;;;;;;;304.53;78.27;;;7.80;99.90;;;;;;10409917;28;20034;-87
2022/04/24 20:51:32;;;;;;;731.33;167.20;;;7.70;99.90;;;;;;10418533;28;20033;-85
2022/04/24 20:56:33;;;;;;;283.70;105.40;;;7.70;99.90;;;;;;10410638;28;20114;-85
2022/04/24 21:01:35;;;;;;;728.97;159.17;;;7.50;99.90;;;;;;10408010;28;20469;-84
2022/04/24 21:06:36;;;;;;;548.40;135.23;;;7.50;99.90;;;;;;10406316;28;21147;-85
2022/04/24 21:11:37;;;;;;;611.83;139.27;;;7.40;99.90;;;;;;10424819;28;20361;-83
2022/04/24 21:16:39;;;;;;;183.87;73.43;;;7.50;99.90;;;;;;10411854;28;20073;-85
2022/04/24 21:21:41;;;;;;;237.70;88.10;;;7.50;99.90;;;;;;10414791;28;20383;-86
2022/04/24 21:26:41;;;;;;;226.07;79.10;;;7.60;99.90;;;;;;10414175;28;20063;-85
2022/04/24 21:31:42;;;;;;;529.07;131.50;;;7.70;99.90;;;;;;10415056;28;20054;-85
2022/04/24 21:36:43;;;;;;;622.60;136.50;;;7.60;99.90;;;;;;10422984;28;20124;-84
2022/04/24 21:41:44;;;;;;;425.90;106.40;;;7.60;99.90;;;;;;10412568;28;20108;-84
2022/04/24 21:46:44;;;;;;;385.07;110.10;;;7.60;99.90;;;;;;10424033;28;20472;-84
2022/04/24 21:51:45;;;;;;;301.93;101.67;;;7.50;99.90;;;;;;10444394;28;20083;-85
2022/04/24 21:56:46;;;;;;;411.40;117.67;;;7.60;99.90;;;;;;10428665;28;20037;-84
2022/04/24 22:07:05;;;;;;;160.80;73.80;;;7.50;99.90;;;;;;10442438;28;20128;-84
2022/04/24 22:12:07;;;;;;;222.70;86.00;;;7.50;99.90;;;;;;10407560;28;20112;-84
2022/04/24 22:17:07;;;;;;;244.33;83.23;;;7.50;99.90;;;;;;10422579;28;20073;-84
2022/04/24 22:27:27;;;;;;;295.00;91.30;;;7.30;99.90;;;;;;10417606;28;20132;-86
2022/04/24 22:32:29;;;;;;;314.43;96.20;;;7.30;99.90;;;;;;10422552;28;20053;-85
2022/04/24 22:37:31;;;;;;;725.13;152.50;;;7.30;99.90;;;;;;10449897;28;20116;-84
2022/04/24 22:42:34;;;;;;;724.77;153.53;;;7.30;99.90;;;;;;10438385;28;20029;-85
2022/04/24 22:47:45;;;;;;;199.40;84.80;;;7.30;99.90;;;;;;10432817;28;20036;-84
2022/04/24 22:52:46;;;;;;;698.37;153.93;;;7.20;99.90;;;;;;10414218;28;20033;-86
2022/04/24 22:57:47;;;;;;;430.70;116.70;;;7.20;99.90;;;;;;10412767;28;20072;-84
2022/04/24 23:02:47;;;;;;;584.67;125.43;;;7.10;99.90;;;;;;10426147;28;20121;-85
2022/04/24 23:07:49;;;;;;;154.20;70.10;;;7.10;99.90;;;;;;10425046;28;20052;-85
2022/04/24 23:12:50;;;;;;;140.13;64.47;;;7.10;99.90;;;;;;10435199;28;20029;-86
2022/04/24 23:23:12;;;;;;;318.20;84.60;;;7.10;99.90;;;;;;10415961;28;20681;-84
2022/04/24 23:28:12;;;;;;;798.67;156.67;;;7.00;99.90;;;;;;10425372;28;20112;-85
2022/04/24 23:33:15;;;;;;;613.70;153.07;;;7.00;99.90;;;;;;10424023;28;20124;-85
2022/04/24 23:38:16;;;;;;;427.60;122.80;;;7.00;99.90;;;;;;10447057;28;20484;-85
2022/04/24 23:43:17;;;;;;;755.93;140.60;;;7.00;99.90;;;;;;10454120;28;20029;-85
2022/04/24 23:48:17;;;;;;;745.13;141.20;;;7.00;99.90;;;;;;10431149;28;20056;-85
2022/04/24 23:53:18;;;;;;;640.53;140.67;;;6.90;99.90;;;;;;10419467;28;20040;-84
2022/04/24 23:58:19;;;;;;;385.93;101.37;;;6.90;99.90;;;;;;10452871;28;20063;-86
